PLT8638 SBPA-SAEZ
Flight info
| Callsign | PLT8638 |
|---|---|
| Flight time | 1h 22m |
| Altitude | 38000 |
| Route | TOKAK UZ53 UMRUD UN741 PAPIX PAPIX7A |
| Aircraft | B77W/H-SDE1E2E3FGHIJ2J3J4J5M1RWXY/LB1D1 |
Departure
| Time | 2026-05-05 00:04 |
|---|---|
| Airport | Porto Alegre-Salgado Filho International Airport (SBPA) |
Arrival
| Time | 2026-05-05 01:26 |
|---|---|
| Airport | Ezeiza International Airport - Ministro Pistarini (SAEZ) |
| Time | Latitude | Longitude | Altitude | Speed | Heading |
|---|---|---|---|---|---|
| 2026-05-04 23:53 | -29.99101 | -51.17674 | 24 ft | 0 kts | 343° |
| 2026-05-04 23:56 | -29.99124 | -51.17666 | 28 ft | 4 kts | 346° |
| 2026-05-04 23:56 | -29.99150 | -51.17659 | 27 ft | 3 kts | 344° |
| 2026-05-04 23:57 | -29.99162 | -51.17654 | 28 ft | 2 kts | 320° |
| 2026-05-04 23:57 | -29.99169 | -51.17644 | 26 ft | 2 kts | 279° |
| 2026-05-04 23:57 | -29.99170 | -51.17632 | 24 ft | 0 kts | 273° |
| 2026-05-04 23:59 | -29.99170 | -51.17633 | 24 ft | 1 kts | 273° |
| 2026-05-05 00:00 | -29.99174 | -51.17662 | 24 ft | 5 kts | 249° |
| 2026-05-05 00:00 | -29.99188 | -51.17680 | 27 ft | 5 kts | 219° |
| 2026-05-05 00:00 | -29.99246 | -51.17698 | 27 ft | 7 kts | 193° |
| 2026-05-05 00:00 | -29.99280 | -51.17737 | 26 ft | 7 kts | 249° |
| 2026-05-05 00:01 | -29.99285 | -51.17796 | 12 ft | 8 kts | 270° |
| 2026-05-05 00:01 | -29.99283 | -51.17857 | 24 ft | 8 kts | 272° |
| 2026-05-05 00:01 | -29.99281 | -51.17921 | 24 ft | 8 kts | 272° |
| 2026-05-05 00:01 | -29.99286 | -51.17997 | 24 ft | 11 kts | 257° |
| 2026-05-05 00:02 | -29.99311 | -51.18080 | 27 ft | 11 kts | 250° |
| 2026-05-05 00:02 | -29.99337 | -51.18161 | 28 ft | 11 kts | 249° |
| 2026-05-05 00:02 | -29.99372 | -51.18236 | 30 ft | 11 kts | 225° |
| 2026-05-05 00:02 | -29.99426 | -51.18269 | 28 ft | 6 kts | 158° |
| 2026-05-05 00:03 | -29.99440 | -51.18220 | 28 ft | 7 kts | 94° |
| 2026-05-05 00:03 | -29.99445 | -51.18014 | 29 ft | 58 kts | 91° |
| 2026-05-05 00:03 | -29.99461 | -51.17196 | 27 ft | 143 kts | 91° |
| 2026-05-05 00:03 | -29.99492 | -51.15802 | 212 ft | 191 kts | 91° |
| 2026-05-05 00:04 | -29.99543 | -51.14220 | 920 ft | 204 kts | 90° |
| 2026-05-05 00:04 | -29.99577 | -51.12548 | 1671 ft | 208 kts | 88° |
| 2026-05-05 00:04 | -29.99883 | -51.10918 | 2303 ft | 215 kts | 124° |
| 2026-05-05 00:04 | -30.01053 | -51.09917 | 2942 ft | 210 kts | 172° |
| 2026-05-05 00:05 | -30.02458 | -51.10051 | 3496 ft | 206 kts | 209° |
| 2026-05-05 00:05 | -30.03540 | -51.11155 | 3715 ft | 218 kts | 244° |
| 2026-05-05 00:05 | -30.04242 | -51.12808 | 4020 ft | 240 kts | 250° |
| 2026-05-05 00:05 | -30.04955 | -51.14617 | 4695 ft | 253 kts | 249° |
| 2026-05-05 00:06 | -30.05683 | -51.16478 | 5443 ft | 262 kts | 249° |
| 2026-05-05 00:06 | -30.06436 | -51.18404 | 6332 ft | 265 kts | 248° |
| 2026-05-05 00:06 | -30.07195 | -51.20346 | 7244 ft | 265 kts | 248° |
| 2026-05-05 00:06 | -30.07958 | -51.22291 | 8176 ft | 265 kts | 248° |
| 2026-05-05 00:07 | -30.08719 | -51.24227 | 9151 ft | 265 kts | 248° |
| 2026-05-05 00:07 | -30.09481 | -51.26165 | 10080 ft | 265 kts | 248° |
| 2026-05-05 00:07 | -30.10258 | -51.28142 | 10716 ft | 278 kts | 247° |
| 2026-05-05 00:07 | -30.11098 | -51.30279 | 10926 ft | 307 kts | 247° |
| 2026-05-05 00:08 | -30.12020 | -51.32626 | 11145 ft | 335 kts | 247° |
| 2026-05-05 00:08 | -30.13012 | -51.35143 | 11675 ft | 350 kts | 247° |
| 2026-05-05 00:08 | -30.14035 | -51.37737 | 12559 ft | 358 kts | 247° |
| 2026-05-05 00:08 | -30.15073 | -51.40368 | 13572 ft | 361 kts | 246° |
| 2026-05-05 00:09 | -30.16120 | -51.43022 | 14484 ft | 365 kts | 246° |
| 2026-05-05 00:09 | -30.17181 | -51.45713 | 15332 ft | 370 kts | 246° |
| 2026-05-05 00:09 | -30.18255 | -51.48439 | 16167 ft | 376 kts | 246° |
| 2026-05-05 00:09 | -30.19345 | -51.51208 | 17041 ft | 381 kts | 246° |
| 2026-05-05 00:10 | -30.20447 | -51.54012 | 17894 ft | 386 kts | 246° |
| 2026-05-05 00:10 | -30.21566 | -51.56862 | 18681 ft | 391 kts | 246° |
| 2026-05-05 00:10 | -30.22681 | -51.59705 | 19425 ft | 395 kts | 245° |
| 2026-05-05 00:10 | -30.23822 | -51.62612 | 20192 ft | 399 kts | 245° |
| 2026-05-05 00:11 | -30.24972 | -51.65548 | 20957 ft | 403 kts | 245° |
| 2026-05-05 00:11 | -30.26133 | -51.68514 | 21706 ft | 407 kts | 245° |
| 2026-05-05 00:11 | -30.27305 | -51.71510 | 22416 ft | 411 kts | 245° |
| 2026-05-05 00:11 | -30.28492 | -51.74546 | 23095 ft | 416 kts | 245° |
| 2026-05-05 00:12 | -30.29688 | -51.77609 | 23752 ft | 420 kts | 245° |
| 2026-05-05 00:12 | -30.30894 | -51.80701 | 24371 ft | 422 kts | 245° |
| 2026-05-05 00:12 | -30.32104 | -51.83806 | 25039 ft | 424 kts | 245° |
| 2026-05-05 00:12 | -30.33316 | -51.86918 | 25702 ft | 425 kts | 245° |
| 2026-05-05 00:13 | -30.34532 | -51.90042 | 26317 ft | 427 kts | 245° |
| 2026-05-05 00:13 | -30.35753 | -51.93185 | 26920 ft | 429 kts | 245° |
| 2026-05-05 00:13 | -30.36982 | -51.96348 | 27469 ft | 432 kts | 245° |
| 2026-05-05 00:13 | -30.38219 | -51.99536 | 28028 ft | 435 kts | 245° |
| 2026-05-05 00:14 | -30.39461 | -52.02739 | 28575 ft | 437 kts | 244° |
| 2026-05-05 00:14 | -30.40712 | -52.05969 | 29096 ft | 440 kts | 245° |
| 2026-05-05 00:14 | -30.41965 | -52.09206 | 29565 ft | 442 kts | 245° |
| 2026-05-05 00:14 | -30.43226 | -52.12467 | 30065 ft | 443 kts | 244° |
| 2026-05-05 00:15 | -30.44483 | -52.15721 | 30629 ft | 440 kts | 245° |
| 2026-05-05 00:15 | -30.45725 | -52.18941 | 31273 ft | 435 kts | 245° |
| 2026-05-05 00:15 | -30.46952 | -52.22123 | 31938 ft | 430 kts | 245° |
| 2026-05-05 00:15 | -30.48167 | -52.25278 | 32538 ft | 427 kts | 245° |
| 2026-05-05 00:16 | -30.49358 | -52.28372 | 33079 ft | 424 kts | 245° |
| 2026-05-05 00:16 | -30.50557 | -52.31488 | 33623 ft | 422 kts | 245° |
| 2026-05-05 00:16 | -30.51748 | -52.34586 | 34123 ft | 419 kts | 245° |
| 2026-05-05 00:16 | -30.52933 | -52.37672 | 34538 ft | 418 kts | 245° |
| 2026-05-05 00:17 | -30.54115 | -52.40752 | 34858 ft | 418 kts | 245° |
| 2026-05-05 00:17 | -30.55299 | -52.43840 | 35170 ft | 419 kts | 245° |
| 2026-05-05 00:17 | -30.56483 | -52.46932 | 35509 ft | 418 kts | 245° |
| 2026-05-05 00:17 | -30.57661 | -52.50011 | 35860 ft | 417 kts | 245° |
| 2026-05-05 00:18 | -30.58837 | -52.53086 | 36196 ft | 417 kts | 245° |
| 2026-05-05 00:18 | -30.60013 | -52.56165 | 36489 ft | 417 kts | 245° |
| 2026-05-05 00:18 | -30.61185 | -52.59234 | 36793 ft | 416 kts | 246° |
| 2026-05-05 00:18 | -30.62355 | -52.62302 | 37128 ft | 415 kts | 246° |
| 2026-05-05 00:19 | -30.63522 | -52.65364 | 37443 ft | 414 kts | 246° |
| 2026-05-05 00:19 | -30.64687 | -52.68425 | 37734 ft | 414 kts | 246° |
| 2026-05-05 00:19 | -30.65851 | -52.71487 | 37963 ft | 415 kts | 246° |
| 2026-05-05 00:20 | -30.68196 | -52.77659 | 38051 ft | 418 kts | 246° |
| 2026-05-05 00:20 | -30.70565 | -52.83797 | 38040 ft | 413 kts | 245° |
| 2026-05-05 00:21 | -30.73081 | -52.89778 | 38046 ft | 411 kts | 244° |
| 2026-05-05 00:21 | -30.75603 | -52.95733 | 38044 ft | 410 kts | 244° |
| 2026-05-05 00:22 | -30.78101 | -53.01702 | 38041 ft | 411 kts | 244° |
| 2026-05-05 00:22 | -30.80588 | -53.07684 | 38044 ft | 411 kts | 244° |
| 2026-05-05 00:23 | -30.83075 | -53.13676 | 38046 ft | 412 kts | 244° |
| 2026-05-05 00:23 | -30.85548 | -53.19645 | 38039 ft | 412 kts | 244° |
| 2026-05-05 00:24 | -30.88039 | -53.25665 | 38049 ft | 413 kts | 244° |
| 2026-05-05 00:24 | -30.90528 | -53.31698 | 38046 ft | 413 kts | 245° |
| 2026-05-05 00:25 | -30.93012 | -53.37739 | 38040 ft | 414 kts | 245° |
| 2026-05-05 00:25 | -30.95493 | -53.43782 | 38043 ft | 413 kts | 245° |
| 2026-05-05 00:26 | -30.97974 | -53.49835 | 38033 ft | 413 kts | 245° |
| 2026-05-05 00:26 | -31.00447 | -53.55878 | 38035 ft | 413 kts | 245° |
| 2026-05-05 00:27 | -31.02912 | -53.61911 | 38039 ft | 412 kts | 245° |
| 2026-05-05 00:27 | -31.05372 | -53.67943 | 38036 ft | 412 kts | 245° |
| 2026-05-05 00:28 | -31.07829 | -53.73976 | 38039 ft | 411 kts | 245° |
| 2026-05-05 00:28 | -31.10263 | -53.79963 | 38041 ft | 411 kts | 245° |
| 2026-05-05 00:29 | -31.12714 | -53.86003 | 38034 ft | 412 kts | 245° |
| 2026-05-05 00:29 | -31.15161 | -53.92041 | 38037 ft | 412 kts | 245° |
| 2026-05-05 00:30 | -31.17607 | -53.98088 | 38036 ft | 412 kts | 245° |
| 2026-05-05 00:30 | -31.20052 | -54.04142 | 38037 ft | 412 kts | 245° |
| 2026-05-05 00:31 | -31.22493 | -54.10197 | 38033 ft | 412 kts | 245° |
| 2026-05-05 00:31 | -31.24935 | -54.16265 | 38023 ft | 412 kts | 245° |
| 2026-05-05 00:32 | -31.27372 | -54.22329 | 38029 ft | 412 kts | 245° |
| 2026-05-05 00:32 | -31.29806 | -54.28399 | 38027 ft | 412 kts | 245° |
| 2026-05-05 00:33 | -31.32237 | -54.34470 | 38024 ft | 412 kts | 245° |
| 2026-05-05 00:33 | -31.34253 | -54.39512 | 38024 ft | 411 kts | 245° |
| 2026-05-05 00:34 | -31.36674 | -54.45578 | 38022 ft | 411 kts | 245° |
| 2026-05-05 00:34 | -31.39092 | -54.51646 | 38021 ft | 411 kts | 245° |
| 2026-05-05 00:35 | -31.41504 | -54.57707 | 38021 ft | 411 kts | 245° |
| 2026-05-05 00:35 | -31.44387 | -54.63479 | 38025 ft | 412 kts | 236° |
| 2026-05-05 00:36 | -31.48030 | -54.68680 | 38018 ft | 415 kts | 228° |
| 2026-05-05 00:36 | -31.52264 | -54.73294 | 38024 ft | 416 kts | 226° |
| 2026-05-05 00:37 | -31.56560 | -54.77849 | 38021 ft | 416 kts | 226° |
| 2026-05-05 00:37 | -31.60846 | -54.82424 | 38018 ft | 416 kts | 226° |
| 2026-05-05 00:38 | -31.65116 | -54.87020 | 38021 ft | 417 kts | 226° |
| 2026-05-05 00:38 | -31.69380 | -54.91626 | 38023 ft | 416 kts | 226° |
| 2026-05-05 00:39 | -31.73615 | -54.96210 | 38010 ft | 417 kts | 226° |
| 2026-05-05 00:39 | -31.77903 | -55.00857 | 38020 ft | 417 kts | 226° |
| 2026-05-05 00:40 | -31.82140 | -55.05454 | 38008 ft | 417 kts | 226° |
| 2026-05-05 00:40 | -31.86398 | -55.10081 | 38013 ft | 417 kts | 226° |
| 2026-05-05 00:41 | -31.90653 | -55.14709 | 38012 ft | 416 kts | 226° |
| 2026-05-05 00:41 | -31.94908 | -55.19343 | 38013 ft | 416 kts | 226° |
| 2026-05-05 00:42 | -31.99157 | -55.23979 | 38018 ft | 417 kts | 227° |
| 2026-05-05 00:42 | -32.03410 | -55.28624 | 38009 ft | 417 kts | 227° |
| 2026-05-05 00:43 | -32.07661 | -55.33272 | 38007 ft | 417 kts | 227° |
| 2026-05-05 00:43 | -32.11912 | -55.37928 | 38004 ft | 417 kts | 227° |
| 2026-05-05 00:44 | -32.16157 | -55.42582 | 38003 ft | 417 kts | 227° |
| 2026-05-05 00:44 | -32.20403 | -55.47244 | 37999 ft | 416 kts | 227° |
| 2026-05-05 00:45 | -32.24619 | -55.51880 | 38003 ft | 416 kts | 227° |
| 2026-05-05 00:45 | -32.28859 | -55.56548 | 37996 ft | 417 kts | 227° |
| 2026-05-05 00:46 | -32.33097 | -55.61221 | 38011 ft | 417 kts | 227° |
| 2026-05-05 00:46 | -32.37338 | -55.65902 | 37998 ft | 417 kts | 227° |
| 2026-05-05 00:47 | -32.41576 | -55.70586 | 37997 ft | 417 kts | 227° |
| 2026-05-05 00:47 | -32.45816 | -55.75280 | 37994 ft | 417 kts | 227° |
| 2026-05-05 00:48 | -32.50052 | -55.79974 | 37999 ft | 417 kts | 227° |
| 2026-05-05 00:48 | -32.54289 | -55.84677 | 38001 ft | 417 kts | 227° |
| 2026-05-05 00:49 | -32.58521 | -55.89381 | 37973 ft | 417 kts | 227° |
| 2026-05-05 00:49 | -32.62725 | -55.94060 | 37995 ft | 417 kts | 227° |
| 2026-05-05 00:50 | -32.66950 | -55.98768 | 37993 ft | 417 kts | 227° |
| 2026-05-05 00:50 | -32.71177 | -56.03485 | 37990 ft | 417 kts | 227° |
| 2026-05-05 00:51 | -32.75406 | -56.08212 | 37984 ft | 417 kts | 227° |
| 2026-05-05 00:51 | -32.79628 | -56.12935 | 37982 ft | 417 kts | 227° |
| 2026-05-05 00:52 | -32.83849 | -56.17666 | 37978 ft | 417 kts | 227° |
| 2026-05-05 00:52 | -32.88071 | -56.22404 | 37977 ft | 417 kts | 227° |
| 2026-05-05 00:53 | -32.92292 | -56.27148 | 37980 ft | 417 kts | 227° |
| 2026-05-05 00:53 | -32.96484 | -56.31864 | 37981 ft | 417 kts | 227° |
| 2026-05-05 00:54 | -33.00697 | -56.36619 | 38006 ft | 417 kts | 228° |
| 2026-05-05 00:54 | -33.04902 | -56.41393 | 37985 ft | 418 kts | 228° |
| 2026-05-05 00:55 | -33.09109 | -56.46173 | 37974 ft | 418 kts | 228° |
| 2026-05-05 00:55 | -33.13309 | -56.50953 | 37976 ft | 417 kts | 228° |
| 2026-05-05 00:56 | -33.17513 | -56.55741 | 37973 ft | 417 kts | 228° |
| 2026-05-05 00:56 | -33.21715 | -56.60530 | 37978 ft | 417 kts | 228° |
| 2026-05-05 00:57 | -33.25907 | -56.65314 | 37975 ft | 417 kts | 228° |
| 2026-05-05 00:57 | -33.30097 | -56.70103 | 37967 ft | 417 kts | 228° |
| 2026-05-05 00:58 | -33.34259 | -56.74868 | 37988 ft | 416 kts | 228° |
| 2026-05-05 00:58 | -33.38444 | -56.79666 | 37978 ft | 417 kts | 228° |
| 2026-05-05 00:59 | -33.42627 | -56.84467 | 37981 ft | 417 kts | 228° |
| 2026-05-05 00:59 | -33.46811 | -56.89276 | 37976 ft | 416 kts | 228° |
| 2026-05-05 01:00 | -33.50995 | -56.94094 | 37970 ft | 416 kts | 228° |
| 2026-05-05 01:00 | -33.55168 | -56.98905 | 37976 ft | 416 kts | 228° |
| 2026-05-05 01:01 | -33.59333 | -57.03713 | 37980 ft | 416 kts | 228° |
| 2026-05-05 01:01 | -33.63505 | -57.08537 | 37976 ft | 416 kts | 229° |
| 2026-05-05 01:02 | -33.67642 | -57.13327 | 37970 ft | 416 kts | 229° |
| 2026-05-05 01:02 | -33.71812 | -57.18161 | 37993 ft | 416 kts | 229° |
| 2026-05-05 01:03 | -33.75984 | -57.23005 | 37968 ft | 417 kts | 229° |
| 2026-05-05 01:03 | -33.80148 | -57.27847 | 37967 ft | 417 kts | 229° |
| 2026-05-05 01:04 | -33.84314 | -57.32699 | 37968 ft | 417 kts | 229° |
| 2026-05-05 01:04 | -33.90562 | -57.39985 | 37963 ft | 417 kts | 229° |
| 2026-05-05 01:05 | -33.94673 | -57.44781 | 37601 ft | 407 kts | 229° |
| 2026-05-05 01:05 | -33.96698 | -57.47147 | 37051 ft | 404 kts | 229° |
| 2026-05-05 01:05 | -33.98715 | -57.49508 | 36341 ft | 405 kts | 229° |
| 2026-05-05 01:06 | -34.00737 | -57.51878 | 35616 ft | 406 kts | 229° |
| 2026-05-05 01:06 | -34.02773 | -57.54267 | 34826 ft | 410 kts | 229° |
| 2026-05-05 01:06 | -34.04802 | -57.56650 | 33979 ft | 415 kts | 229° |
| 2026-05-05 01:06 | -34.06911 | -57.59128 | 33005 ft | 420 kts | 229° |
| 2026-05-05 01:07 | -34.08982 | -57.61561 | 32074 ft | 424 kts | 229° |
| 2026-05-05 01:07 | -34.11105 | -57.64058 | 31111 ft | 428 kts | 229° |
| 2026-05-05 01:07 | -34.13241 | -57.66569 | 30377 ft | 428 kts | 229° |
| 2026-05-05 01:07 | -34.15369 | -57.69069 | 29712 ft | 425 kts | 229° |
| 2026-05-05 01:08 | -34.17481 | -57.71553 | 28962 ft | 422 kts | 229° |
| 2026-05-05 01:08 | -34.19573 | -57.74017 | 28286 ft | 419 kts | 229° |
| 2026-05-05 01:08 | -34.21651 | -57.76467 | 27605 ft | 415 kts | 229° |
| 2026-05-05 01:08 | -34.23709 | -57.78895 | 26948 ft | 412 kts | 229° |
| 2026-05-05 01:09 | -34.25753 | -57.81310 | 26286 ft | 409 kts | 229° |
| 2026-05-05 01:09 | -34.27780 | -57.83707 | 25643 ft | 406 kts | 229° |
| 2026-05-05 01:09 | -34.29794 | -57.86090 | 25019 ft | 404 kts | 229° |
| 2026-05-05 01:09 | -34.31796 | -57.88462 | 24380 ft | 402 kts | 229° |
| 2026-05-05 01:10 | -34.33788 | -57.90823 | 23746 ft | 400 kts | 229° |
| 2026-05-05 01:10 | -34.35775 | -57.93180 | 23038 ft | 398 kts | 229° |
| 2026-05-05 01:10 | -34.37746 | -57.95518 | 22372 ft | 395 kts | 229° |
| 2026-05-05 01:10 | -34.39675 | -57.97808 | 21745 ft | 392 kts | 229° |
| 2026-05-05 01:11 | -34.41615 | -58.00111 | 21145 ft | 388 kts | 229° |
| 2026-05-05 01:11 | -34.43495 | -58.02439 | 20540 ft | 384 kts | 231° |
| 2026-05-05 01:11 | -34.45306 | -58.04793 | 19947 ft | 381 kts | 231° |
| 2026-05-05 01:11 | -34.47092 | -58.07150 | 19364 ft | 378 kts | 231° |
| 2026-05-05 01:12 | -34.48866 | -58.09493 | 18774 ft | 376 kts | 231° |
| 2026-05-05 01:12 | -34.50634 | -58.11821 | 18181 ft | 375 kts | 231° |
| 2026-05-05 01:12 | -34.52403 | -58.14143 | 17525 ft | 373 kts | 231° |
| 2026-05-05 01:12 | -34.54155 | -58.16438 | 16916 ft | 369 kts | 230° |
| 2026-05-05 01:13 | -34.55894 | -58.18712 | 16346 ft | 366 kts | 230° |
| 2026-05-05 01:13 | -34.57620 | -58.20969 | 15779 ft | 363 kts | 230° |
| 2026-05-05 01:13 | -34.59329 | -58.23205 | 15228 ft | 360 kts | 230° |
| 2026-05-05 01:13 | -34.61022 | -58.25420 | 14687 ft | 357 kts | 230° |
| 2026-05-05 01:14 | -34.62706 | -58.27625 | 14130 ft | 354 kts | 229° |
| 2026-05-05 01:14 | -34.64375 | -58.29813 | 13549 ft | 352 kts | 229° |
| 2026-05-05 01:14 | -34.66040 | -58.31996 | 12979 ft | 350 kts | 229° |
| 2026-05-05 01:14 | -34.67689 | -58.34158 | 12418 ft | 347 kts | 229° |
| 2026-05-05 01:15 | -34.69320 | -58.36299 | 11874 ft | 344 kts | 229° |
| 2026-05-05 01:15 | -34.70940 | -58.38427 | 11356 ft | 341 kts | 229° |
| 2026-05-05 01:15 | -34.72544 | -58.40536 | 10949 ft | 336 kts | 229° |
| 2026-05-05 01:15 | -34.74079 | -58.42554 | 10777 ft | 324 kts | 229° |
| 2026-05-05 01:16 | -34.75579 | -58.44526 | 10640 ft | 312 kts | 229° |
| 2026-05-05 01:16 | -34.77026 | -58.46432 | 10503 ft | 300 kts | 229° |
| 2026-05-05 01:16 | -34.78417 | -58.48263 | 10375 ft | 289 kts | 230° |
| 2026-05-05 01:16 | -34.79758 | -58.50030 | 10267 ft | 279 kts | 230° |
| 2026-05-05 01:17 | -34.81053 | -58.51737 | 10131 ft | 270 kts | 230° |
| 2026-05-05 01:17 | -34.82301 | -58.53383 | 10031 ft | 259 kts | 230° |
| 2026-05-05 01:17 | -34.83287 | -58.55133 | 9769 ft | 248 kts | 245° |
| 2026-05-05 01:17 | -34.83962 | -58.57068 | 9392 ft | 249 kts | 249° |
| 2026-05-05 01:18 | -34.84583 | -58.59048 | 8987 ft | 251 kts | 250° |
| 2026-05-05 01:18 | -34.85202 | -58.61046 | 8606 ft | 253 kts | 250° |
| 2026-05-05 01:18 | -34.85822 | -58.63051 | 8240 ft | 254 kts | 250° |
| 2026-05-05 01:18 | -34.86445 | -58.65065 | 7886 ft | 254 kts | 250° |
| 2026-05-05 01:19 | -34.86835 | -58.67137 | 7393 ft | 253 kts | 270° |
| 2026-05-05 01:19 | -34.86659 | -58.69292 | 6958 ft | 258 kts | 279° |
| 2026-05-05 01:19 | -34.86357 | -58.71446 | 6648 ft | 257 kts | 280° |
| 2026-05-05 01:19 | -34.86054 | -58.73564 | 6358 ft | 257 kts | 280° |
| 2026-05-05 01:20 | -34.85848 | -58.75012 | 6136 ft | 257 kts | 280° |
| 2026-05-05 01:20 | -34.85448 | -58.77846 | 5708 ft | 256 kts | 280° |
| 2026-05-05 01:20 | -34.85244 | -58.79290 | 5498 ft | 256 kts | 280° |
| 2026-05-05 01:20 | -34.84873 | -58.81388 | 5160 ft | 251 kts | 292° |
| 2026-05-05 01:21 | -34.83868 | -58.83093 | 4829 ft | 251 kts | 321° |
| 2026-05-05 01:21 | -34.82286 | -58.83946 | 4522 ft | 253 kts | 350° |
| 2026-05-05 01:21 | -34.80559 | -58.83789 | 4201 ft | 254 kts | 11° |
| 2026-05-05 01:21 | -34.78952 | -58.82947 | 3879 ft | 255 kts | 36° |
| 2026-05-05 01:22 | -34.77898 | -58.81244 | 3683 ft | 254 kts | 68° |
| 2026-05-05 01:22 | -34.77690 | -58.79136 | 3483 ft | 252 kts | 94° |
| 2026-05-05 01:22 | -34.77977 | -58.77079 | 3364 ft | 241 kts | 100° |
| 2026-05-05 01:22 | -34.78333 | -58.75115 | 3181 ft | 234 kts | 101° |
| 2026-05-05 01:23 | -34.78682 | -58.73225 | 2974 ft | 225 kts | 101° |
| 2026-05-05 01:23 | -34.79017 | -58.71383 | 2671 ft | 221 kts | 100° |
| 2026-05-05 01:23 | -34.79342 | -58.69578 | 2384 ft | 215 kts | 99° |
| 2026-05-05 01:23 | -34.79654 | -58.67846 | 2096 ft | 202 kts | 99° |
| 2026-05-05 01:24 | -34.79945 | -58.66234 | 1857 ft | 187 kts | 99° |
| 2026-05-05 01:24 | -34.80213 | -58.64746 | 1611 ft | 174 kts | 98° |
| 2026-05-05 01:24 | -34.80459 | -58.63371 | 1394 ft | 164 kts | 98° |
| 2026-05-05 01:24 | -34.80702 | -58.62013 | 1184 ft | 164 kts | 98° |
| 2026-05-05 01:25 | -34.80945 | -58.60671 | 976 ft | 161 kts | 99° |
| 2026-05-05 01:25 | -34.81175 | -58.59353 | 734 ft | 156 kts | 100° |
| 2026-05-05 01:25 | -34.81414 | -58.58077 | 517 ft | 154 kts | 101° |
| 2026-05-05 01:25 | -34.81647 | -58.56804 | 335 ft | 155 kts | 100° |
| 2026-05-05 01:26 | -34.81873 | -58.55525 | 157 ft | 155 kts | 101° |
| 2026-05-05 01:26 | -34.82093 | -58.54286 | 91 ft | 138 kts | 102° |
| 2026-05-05 01:26 | -34.82259 | -58.53370 | 89 ft | 84 kts | 102° |
| 2026-05-05 01:26 | -34.82337 | -58.52925 | 91 ft | 8 kts | 101° |
| 2026-05-05 01:27 | -34.82300 | -58.52881 | 89 ft | 14 kts | 354° |
| 2026-05-05 01:27 | -34.82158 | -58.52936 | 89 ft | 23 kts | 342° |
| 2026-05-05 01:27 | -34.82044 | -58.52994 | 87 ft | 12 kts | 314° |
| 2026-05-05 01:27 | -34.82010 | -58.53097 | 86 ft | 14 kts | 285° |
| 2026-05-05 01:28 | -34.81986 | -58.53219 | 84 ft | 15 kts | 283° |
| 2026-05-05 01:28 | -34.81961 | -58.53350 | 83 ft | 16 kts | 283° |
| 2026-05-05 01:28 | -34.81936 | -58.53474 | 85 ft | 12 kts | 285° |
| 2026-05-05 01:28 | -34.81917 | -58.53561 | 82 ft | 11 kts | 283° |
| 2026-05-05 01:29 | -34.81880 | -58.53638 | 86 ft | 11 kts | 319° |
| 2026-05-05 01:29 | -34.81814 | -58.53681 | 83 ft | 11 kts | 334° |
| 2026-05-05 01:29 | -34.81743 | -58.53724 | 84 ft | 12 kts | 334° |
| 2026-05-05 01:29 | -34.81676 | -58.53776 | 85 ft | 12 kts | 316° |
| 2026-05-05 01:30 | -34.81629 | -58.53857 | 85 ft | 12 kts | 318° |
| 2026-05-05 01:30 | -34.81574 | -58.53908 | 82 ft | 6 kts | 323° |
| 2026-05-05 01:30 | -34.81557 | -58.53924 | 85 ft | 0 kts | 322° |